sensor_id;sensor_type;location;lat;lon;timestamp;P1;durP1;ratioP1;P2;durP2;ratioP2
47669;SDS011;33408;52.062;11.722;2023-06-24T00:02:14;29.33;;;24.30;;
47669;SDS011;33408;52.062;11.722;2023-06-24T00:04:40;26.40;;;22.98;;
47669;SDS011;33408;52.062;11.722;2023-06-24T00:07:07;32.25;;;24.30;;
47669;SDS011;33408;52.062;11.722;2023-06-24T00:09:35;29.98;;;24.00;;
47669;SDS011;33408;52.062;11.722;2023-06-24T00:12:02;27.90;;;22.17;;
47669;SDS011;33408;52.062;11.722;2023-06-24T00:14:29;25.80;;;22.30;;
47669;SDS011;33408;52.062;11.722;2023-06-24T00:16:57;25.45;;;22.67;;
47669;SDS011;33408;52.062;11.722;2023-06-24T00:19:24;24.50;;;20.50;;
47669;SDS011;33408;52.062;11.722;2023-06-24T00:21:52;22.63;;;19.83;;
47669;SDS011;33408;52.062;11.722;2023-06-24T00:24:19;19.75;;;17.27;;
47669;SDS011;33408;52.062;11.722;2023-06-24T00:26:47;20.20;;;18.00;;
47669;SDS011;33408;52.062;11.722;2023-06-24T00:29:14;20.17;;;16.15;;
47669;SDS011;33408;52.062;11.722;2023-06-24T00:31:41;21.73;;;16.75;;
47669;SDS011;33408;52.062;11.722;2023-06-24T00:34:08;20.52;;;15.63;;
47669;SDS011;33408;52.062;11.722;2023-06-24T00:36:34;20.63;;;15.70;;
47669;SDS011;33408;52.062;11.722;2023-06-24T00:39:03;19.13;;;15.70;;
47669;SDS011;33408;52.062;11.722;2023-06-24T00:41:30;17.95;;;15.75;;
47669;SDS011;33408;52.062;11.722;2023-06-24T00:43:58;19.38;;;15.05;;
47669;SDS011;33408;52.062;11.722;2023-06-24T00:46:26;19.30;;;15.77;;
47669;SDS011;33408;52.062;11.722;2023-06-24T00:48:54;16.98;;;13.50;;
47669;SDS011;33408;52.062;11.722;2023-06-24T00:51:21;16.80;;;13.10;;
47669;SDS011;33408;52.062;11.722;2023-06-24T00:53:51;15.00;;;12.77;;
47669;SDS011;33408;52.062;11.722;2023-06-24T00:56:18;13.85;;;12.18;;
47669;SDS011;33408;52.062;11.722;2023-06-24T00:58:47;15.80;;;12.70;;
47669;SDS011;33408;52.062;11.722;2023-06-24T01:01:16;13.35;;;11.45;;
47669;SDS011;33408;52.062;11.722;2023-06-24T01:03:44;13.20;;;10.60;;
47669;SDS011;33408;52.062;11.722;2023-06-24T01:06:11;17.25;;;11.27;;
47669;SDS011;33408;52.062;11.722;2023-06-24T01:08:39;14.57;;;11.35;;
47669;SDS011;33408;52.062;11.722;2023-06-24T01:11:06;13.27;;;9.10;;
47669;SDS011;33408;52.062;11.722;2023-06-24T01:13:32;12.60;;;8.63;;
47669;SDS011;33408;52.062;11.722;2023-06-24T01:15:59;12.45;;;9.05;;
47669;SDS011;33408;52.062;11.722;2023-06-24T01:18:34;11.07;;;8.40;;
47669;SDS011;33408;52.062;11.722;2023-06-24T01:21:08;10.25;;;8.40;;
47669;SDS011;33408;52.062;11.722;2023-06-24T01:24:02;10.35;;;7.88;;
47669;SDS011;33408;52.062;11.722;2023-06-24T01:26:57;14.60;;;9.07;;
47669;SDS011;33408;52.062;11.722;2023-06-24T01:29:52;14.05;;;9.43;;
47669;SDS011;33408;52.062;11.722;2023-06-24T01:32:31;16.23;;;9.77;;
47669;SDS011;33408;52.062;11.722;2023-06-24T01:35:02;12.93;;;9.68;;
47669;SDS011;33408;52.062;11.722;2023-06-24T01:37:35;13.27;;;8.98;;
47669;SDS011;33408;52.062;11.722;2023-06-24T01:40:05;17.20;;;9.90;;
47669;SDS011;33408;52.062;11.722;2023-06-24T01:42:38;13.40;;;9.57;;
47669;SDS011;33408;52.062;11.722;2023-06-24T01:45:08;15.02;;;10.60;;
47669;SDS011;33408;52.062;11.722;2023-06-24T01:47:39;13.50;;;10.20;;
47669;SDS011;33408;52.062;11.722;2023-06-24T01:50:10;17.83;;;9.95;;
47669;SDS011;33408;52.062;11.722;2023-06-24T01:52:39;14.55;;;10.82;;
47669;SDS011;33408;52.062;11.722;2023-06-24T01:55:09;14.60;;;11.05;;
47669;SDS011;33408;52.062;11.722;2023-06-24T01:57:41;15.32;;;10.57;;
47669;SDS011;33408;52.062;11.722;2023-06-24T02:00:10;12.65;;;10.57;;
47669;SDS011;33408;52.062;11.722;2023-06-24T02:02:37;14.95;;;11.07;;
47669;SDS011;33408;52.062;11.722;2023-06-24T02:05:08;14.95;;;11.45;;
47669;SDS011;33408;52.062;11.722;2023-06-24T02:07:36;14.73;;;11.60;;
47669;SDS011;33408;52.062;11.722;2023-06-24T02:10:04;21.00;;;12.48;;
47669;SDS011;33408;52.062;11.722;2023-06-24T02:12:34;16.88;;;11.93;;
47669;SDS011;33408;52.062;11.722;2023-06-24T02:15:01;15.75;;;12.77;;
47669;SDS011;33408;52.062;11.722;2023-06-24T02:17:32;15.68;;;12.23;;
47669;SDS011;33408;52.062;11.722;2023-06-24T02:20:00;13.88;;;11.35;;
47669;SDS011;33408;52.062;11.722;2023-06-24T02:22:31;14.07;;;12.30;;
47669;SDS011;33408;52.062;11.722;2023-06-24T02:24:57;16.58;;;12.80;;
47669;SDS011;33408;52.062;11.722;2023-06-24T02:27:24;17.98;;;12.55;;
47669;SDS011;33408;52.062;11.722;2023-06-24T02:29:51;15.00;;;11.75;;
47669;SDS011;33408;52.062;11.722;2023-06-24T02:32:18;17.55;;;13.20;;
47669;SDS011;33408;52.062;11.722;2023-06-24T02:34:45;19.13;;;12.45;;
47669;SDS011;33408;52.062;11.722;2023-06-24T02:37:13;16.33;;;12.10;;
47669;SDS011;33408;52.062;11.722;2023-06-24T02:39:40;19.67;;;13.07;;
47669;SDS011;33408;52.062;11.722;2023-06-24T02:42:09;16.08;;;12.63;;
47669;SDS011;33408;52.062;11.722;2023-06-24T02:44:36;17.27;;;12.55;;
47669;SDS011;33408;52.062;11.722;2023-06-24T02:47:03;15.65;;;12.07;;
47669;SDS011;33408;52.062;11.722;2023-06-24T02:49:31;19.67;;;13.07;;
47669;SDS011;33408;52.062;11.722;2023-06-24T02:51:58;15.52;;;12.65;;
47669;SDS011;33408;52.062;11.722;2023-06-24T02:54:26;21.60;;;13.52;;
47669;SDS011;33408;52.062;11.722;2023-06-24T02:56:53;20.02;;;14.07;;
47669;SDS011;33408;52.062;11.722;2023-06-24T02:59:22;16.08;;;13.48;;
47669;SDS011;33408;52.062;11.722;2023-06-24T03:01:49;21.58;;;14.40;;
47669;SDS011;33408;52.062;11.722;2023-06-24T03:04:17;20.38;;;14.05;;
47669;SDS011;33408;52.062;11.722;2023-06-24T03:06:44;20.80;;;14.93;;
47669;SDS011;33408;52.062;11.722;2023-06-24T03:09:13;21.70;;;15.73;;
47669;SDS011;33408;52.062;11.722;2023-06-24T03:11:42;17.80;;;15.13;;
47669;SDS011;33408;52.062;11.722;2023-06-24T03:14:09;24.08;;;14.60;;
47669;SDS011;33408;52.062;11.722;2023-06-24T03:16:36;21.38;;;15.52;;
47669;SDS011;33408;52.062;11.722;2023-06-24T03:19:03;20.45;;;15.88;;
47669;SDS011;33408;52.062;11.722;2023-06-24T03:21:30;20.33;;;15.07;;
47669;SDS011;33408;52.062;11.722;2023-06-24T03:23:57;20.40;;;16.42;;
47669;SDS011;33408;52.062;11.722;2023-06-24T03:26:23;24.15;;;15.73;;
47669;SDS011;33408;52.062;11.722;2023-06-24T03:28:52;18.90;;;15.50;;
47669;SDS011;33408;52.062;11.722;2023-06-24T03:31:18;20.25;;;15.75;;
47669;SDS011;33408;52.062;11.722;2023-06-24T03:33:48;20.08;;;14.95;;
47669;SDS011;33408;52.062;11.722;2023-06-24T03:36:15;15.93;;;14.20;;
47669;SDS011;33408;52.062;11.722;2023-06-24T03:38:41;22.88;;;14.70;;
47669;SDS011;33408;52.062;11.722;2023-06-24T03:41:08;19.20;;;13.38;;
47669;SDS011;33408;52.062;11.722;2023-06-24T03:43:34;21.02;;;13.90;;
47669;SDS011;33408;52.062;11.722;2023-06-24T03:46:02;19.65;;;13.70;;
47669;SDS011;33408;52.062;11.722;2023-06-24T03:48:29;19.33;;;14.27;;
47669;SDS011;33408;52.062;11.722;2023-06-24T03:50:56;16.80;;;13.73;;
47669;SDS011;33408;52.062;11.722;2023-06-24T03:53:22;18.42;;;14.75;;
47669;SDS011;33408;52.062;11.722;2023-06-24T03:55:49;15.80;;;13.25;;
47669;SDS011;33408;52.062;11.722;2023-06-24T03:58:15;15.63;;;13.55;;
47669;SDS011;33408;52.062;11.722;2023-06-24T04:00:42;23.17;;;14.23;;
47669;SDS011;33408;52.062;11.722;2023-06-24T04:03:10;19.05;;;14.50;;
47669;SDS011;33408;52.062;11.722;2023-06-24T04:05:37;21.65;;;16.05;;
47669;SDS011;33408;52.062;11.722;2023-06-24T04:08:03;16.65;;;14.15;;
47669;SDS011;33408;52.062;11.722;2023-06-24T04:10:31;16.42;;;13.85;;
47669;SDS011;33408;52.062;11.722;2023-06-24T04:12:58;16.13;;;14.05;;
47669;SDS011;33408;52.062;11.722;2023-06-24T04:15:24;16.00;;;13.55;;
47669;SDS011;33408;52.062;11.722;2023-06-24T04:17:51;18.58;;;14.30;;
47669;SDS011;33408;52.062;11.722;2023-06-24T04:20:19;21.00;;;13.77;;
47669;SDS011;33408;52.062;11.722;2023-06-24T04:22:45;17.13;;;12.98;;
47669;SDS011;33408;52.062;11.722;2023-06-24T04:25:12;18.50;;;13.35;;
47669;SDS011;33408;52.062;11.722;2023-06-24T04:27:39;18.83;;;13.38;;
47669;SDS011;33408;52.062;11.722;2023-06-24T04:30:06;16.10;;;11.65;;
47669;SDS011;33408;52.062;11.722;2023-06-24T04:32:33;15.40;;;12.85;;
47669;SDS011;33408;52.062;11.722;2023-06-24T04:34:59;17.83;;;11.80;;
47669;SDS011;33408;52.062;11.722;2023-06-24T04:37:28;15.57;;;11.68;;
47669;SDS011;33408;52.062;11.722;2023-06-24T04:39:54;16.67;;;11.32;;
47669;SDS011;33408;52.062;11.722;2023-06-24T04:42:21;17.23;;;12.52;;
47669;SDS011;33408;52.062;11.722;2023-06-24T04:44:48;15.57;;;12.05;;
47669;SDS011;33408;52.062;11.722;2023-06-24T04:47:16;17.80;;;13.32;;
47669;SDS011;33408;52.062;11.722;2023-06-24T04:49:42;15.82;;;11.60;;
47669;SDS011;33408;52.062;11.722;2023-06-24T04:52:10;17.35;;;12.13;;
47669;SDS011;33408;52.062;11.722;2023-06-24T04:54:38;20.02;;;12.43;;
47669;SDS011;33408;52.062;11.722;2023-06-24T04:57:06;16.33;;;12.07;;
47669;SDS011;33408;52.062;11.722;2023-06-24T04:59:34;16.58;;;11.43;;
47669;SDS011;33408;52.062;11.722;2023-06-24T05:02:01;13.98;;;11.00;;
47669;SDS011;33408;52.062;11.722;2023-06-24T05:04:29;13.90;;;10.40;;
47669;SDS011;33408;52.062;11.722;2023-06-24T05:06:55;14.43;;;11.00;;
47669;SDS011;33408;52.062;11.722;2023-06-24T05:09:22;14.80;;;10.52;;
47669;SDS011;33408;52.062;11.722;2023-06-24T05:11:50;17.00;;;11.35;;
47669;SDS011;33408;52.062;11.722;2023-06-24T05:14:16;14.00;;;10.57;;
47669;SDS011;33408;52.062;11.722;2023-06-24T05:16:47;15.20;;;10.05;;
47669;SDS011;33408;52.062;11.722;2023-06-24T05:19:14;13.20;;;9.05;;
47669;SDS011;33408;52.062;11.722;2023-06-24T05:21:41;13.95;;;9.25;;
47669;SDS011;33408;52.062;11.722;2023-06-24T05:24:08;14.35;;;9.43;;
47669;SDS011;33408;52.062;11.722;2023-06-24T05:26:34;12.45;;;8.98;;
47669;SDS011;33408;52.062;11.722;2023-06-24T05:29:02;12.75;;;8.93;;
47669;SDS011;33408;52.062;11.722;2023-06-24T05:31:29;15.07;;;8.60;;
47669;SDS011;33408;52.062;11.722;2023-06-24T05:33:55;14.38;;;9.10;;
47669;SDS011;33408;52.062;11.722;2023-06-24T05:36:22;13.77;;;9.35;;
47669;SDS011;33408;52.062;11.722;2023-06-24T05:38:49;13.85;;;8.70;;
47669;SDS011;33408;52.062;11.722;2023-06-24T05:41:15;12.82;;;8.10;;
47669;SDS011;33408;52.062;11.722;2023-06-24T05:43:42;13.02;;;8.32;;
47669;SDS011;33408;52.062;11.722;2023-06-24T05:46:10;10.82;;;8.73;;
47669;SDS011;33408;52.062;11.722;2023-06-24T05:48:37;13.13;;;8.65;;
47669;SDS011;33408;52.062;11.722;2023-06-24T05:51:03;13.05;;;8.57;;
47669;SDS011;33408;52.062;11.722;2023-06-24T05:53:30;12.68;;;9.80;;
47669;SDS011;33408;52.062;11.722;2023-06-24T05:55:57;13.55;;;9.88;;
47669;SDS011;33408;52.062;11.722;2023-06-24T05:58:23;14.50;;;9.35;;
47669;SDS011;33408;52.062;11.722;2023-06-24T06:00:50;13.80;;;10.57;;
47669;SDS011;33408;52.062;11.722;2023-06-24T06:03:18;12.45;;;9.80;;
47669;SDS011;33408;52.062;11.722;2023-06-24T06:05:45;13.63;;;10.10;;
47669;SDS011;33408;52.062;11.722;2023-06-24T06:08:11;14.15;;;9.93;;
47669;SDS011;33408;52.062;11.722;2023-06-24T06:10:38;13.80;;;9.77;;
47669;SDS011;33408;52.062;11.722;2023-06-24T06:13:04;17.27;;;11.27;;
47669;SDS011;33408;52.062;11.722;2023-06-24T06:15:31;13.18;;;10.55;;
47669;SDS011;33408;52.062;11.722;2023-06-24T06:17:57;13.05;;;10.85;;
47669;SDS011;33408;52.062;11.722;2023-06-24T06:20:25;14.90;;;11.70;;
47669;SDS011;33408;52.062;11.722;2023-06-24T06:22:52;14.43;;;11.55;;
47669;SDS011;33408;52.062;11.722;2023-06-24T06:25:19;16.48;;;11.43;;
47669;SDS011;33408;52.062;11.722;2023-06-24T06:27:45;17.05;;;11.52;;
47669;SDS011;33408;52.062;11.722;2023-06-24T06:30:12;15.60;;;12.27;;
47669;SDS011;33408;52.062;11.722;2023-06-24T06:32:40;14.88;;;11.55;;
47669;SDS011;33408;52.062;11.722;2023-06-24T06:35:06;13.63;;;11.45;;
47669;SDS011;33408;52.062;11.722;2023-06-24T06:37:37;15.15;;;11.32;;
47669;SDS011;33408;52.062;11.722;2023-06-24T06:40:05;14.43;;;11.88;;
47669;SDS011;33408;52.062;11.722;2023-06-24T06:42:32;14.60;;;12.13;;
47669;SDS011;33408;52.062;11.722;2023-06-24T06:44:59;15.00;;;12.57;;
47669;SDS011;33408;52.062;11.722;2023-06-24T06:47:25;14.52;;;11.35;;
47669;SDS011;33408;52.062;11.722;2023-06-24T06:49:53;15.18;;;11.82;;
47669;SDS011;33408;52.062;11.722;2023-06-24T06:52:20;17.67;;;12.32;;
47669;SDS011;33408;52.062;11.722;2023-06-24T06:54:48;15.30;;;12.10;;
47669;SDS011;33408;52.062;11.722;2023-06-24T06:57:14;15.88;;;12.07;;
47669;SDS011;33408;52.062;11.722;2023-06-24T06:59:41;14.57;;;11.80;;
47669;SDS011;33408;52.062;11.722;2023-06-24T07:02:07;13.88;;;11.55;;
47669;SDS011;33408;52.062;11.722;2023-06-24T07:04:34;13.20;;;11.43;;
47669;SDS011;33408;52.062;11.722;2023-06-24T07:07:00;15.10;;;11.52;;
47669;SDS011;33408;52.062;11.722;2023-06-24T07:09:27;14.45;;;11.88;;
47669;SDS011;33408;52.062;11.722;2023-06-24T07:11:55;14.45;;;11.70;;
47669;SDS011;33408;52.062;11.722;2023-06-24T07:14:22;16.48;;;12.00;;
47669;SDS011;33408;52.062;11.722;2023-06-24T07:16:48;18.38;;;12.02;;
47669;SDS011;33408;52.062;11.722;2023-06-24T07:19:15;17.83;;;12.45;;
47669;SDS011;33408;52.062;11.722;2023-06-24T07:21:41;15.63;;;12.13;;
47669;SDS011;33408;52.062;11.722;2023-06-24T07:24:08;15.48;;;12.15;;
47669;SDS011;33408;52.062;11.722;2023-06-24T07:26:35;13.85;;;10.68;;
47669;SDS011;33408;52.062;11.722;2023-06-24T07:29:05;16.13;;;10.77;;
47669;SDS011;33408;52.062;11.722;2023-06-24T07:31:32;14.40;;;10.40;;
47669;SDS011;33408;52.062;11.722;2023-06-24T07:33:58;11.70;;;9.30;;
47669;SDS011;33408;52.062;11.722;2023-06-24T07:36:25;14.35;;;10.10;;
47669;SDS011;33408;52.062;11.722;2023-06-24T07:38:51;14.20;;;10.77;;
47669;SDS011;33408;52.062;11.722;2023-06-24T07:41:18;13.32;;;10.07;;
47669;SDS011;33408;52.062;11.722;2023-06-24T07:43:45;16.98;;;11.60;;
47669;SDS011;33408;52.062;11.722;2023-06-24T07:46:13;17.35;;;12.00;;
47669;SDS011;33408;52.062;11.722;2023-06-24T07:48:39;18.80;;;11.77;;
47669;SDS011;33408;52.062;11.722;2023-06-24T07:51:06;13.52;;;11.27;;
47669;SDS011;33408;52.062;11.722;2023-06-24T07:53:32;15.30;;;10.18;;
47669;SDS011;33408;52.062;11.722;2023-06-24T07:55:59;13.75;;;11.10;;
47669;SDS011;33408;52.062;11.722;2023-06-24T07:58:25;16.08;;;10.60;;
47669;SDS011;33408;52.062;11.722;2023-06-24T08:00:52;14.45;;;10.63;;
47669;SDS011;33408;52.062;11.722;2023-06-24T08:03:20;12.73;;;10.98;;
47669;SDS011;33408;52.062;11.722;2023-06-24T08:05:48;16.67;;;9.82;;
47669;SDS011;33408;52.062;11.722;2023-06-24T08:08:15;11.60;;;9.27;;
47669;SDS011;33408;52.062;11.722;2023-06-24T08:10:43;11.43;;;8.43;;
47669;SDS011;33408;52.062;11.722;2023-06-24T08:13:10;10.70;;;8.27;;
47669;SDS011;33408;52.062;11.722;2023-06-24T08:15:36;12.40;;;8.50;;
47669;SDS011;33408;52.062;11.722;2023-06-24T08:18:03;10.07;;;7.65;;
47669;SDS011;33408;52.062;11.722;2023-06-24T08:20:31;13.23;;;8.63;;
47669;SDS011;33408;52.062;11.722;2023-06-24T08:22:58;11.00;;;8.25;;
47669;SDS011;33408;52.062;11.722;2023-06-24T08:25:24;9.55;;;7.30;;
47669;SDS011;33408;52.062;11.722;2023-06-24T08:27:52;9.25;;;6.40;;
47669;SDS011;33408;52.062;11.722;2023-06-24T08:30:18;9.68;;;6.70;;
47669;SDS011;33408;52.062;11.722;2023-06-24T08:32:45;12.35;;;7.38;;
47669;SDS011;33408;52.062;11.722;2023-06-24T08:35:11;9.80;;;7.00;;
47669;SDS011;33408;52.062;11.722;2023-06-24T08:37:40;10.07;;;6.68;;
47669;SDS011;33408;52.062;11.722;2023-06-24T08:40:07;10.50;;;7.30;;
47669;SDS011;33408;52.062;11.722;2023-06-24T08:42:34;9.68;;;6.90;;
47669;SDS011;33408;52.062;11.722;2023-06-24T08:45:01;9.07;;;6.60;;
47669;SDS011;33408;52.062;11.722;2023-06-24T08:47:28;9.27;;;5.50;;
47669;SDS011;33408;52.062;11.722;2023-06-24T08:50:00;11.52;;;6.20;;
47669;SDS011;33408;52.062;11.722;2023-06-24T08:52:30;8.65;;;6.43;;
47669;SDS011;33408;52.062;11.722;2023-06-24T08:55:03;12.10;;;6.88;;
47669;SDS011;33408;52.062;11.722;2023-06-24T08:57:32;8.68;;;6.60;;
47669;SDS011;33408;52.062;11.722;2023-06-24T08:59:59;9.45;;;6.53;;
47669;SDS011;33408;52.062;11.722;2023-06-24T09:02:25;10.63;;;6.22;;
47669;SDS011;33408;52.062;11.722;2023-06-24T09:04:53;9.70;;;5.70;;
47669;SDS011;33408;52.062;11.722;2023-06-24T09:07:26;9.05;;;5.50;;
47669;SDS011;33408;52.062;11.722;2023-06-24T09:09:53;12.57;;;6.78;;
47669;SDS011;33408;52.062;11.722;2023-06-24T09:12:21;8.30;;;5.93;;
47669;SDS011;33408;52.062;11.722;2023-06-24T09:14:50;8.43;;;5.18;;
47669;SDS011;33408;52.062;11.722;2023-06-24T09:17:17;12.40;;;6.82;;
47669;SDS011;33408;52.062;11.722;2023-06-24T09:19:47;10.80;;;5.78;;
47669;SDS011;33408;52.062;11.722;2023-06-24T09:22:14;7.57;;;5.38;;
47669;SDS011;33408;52.062;11.722;2023-06-24T09:24:43;10.00;;;5.32;;
47669;SDS011;33408;52.062;11.722;2023-06-24T09:27:11;7.90;;;5.32;;
47669;SDS011;33408;52.062;11.722;2023-06-24T09:29:40;11.68;;;5.63;;
47669;SDS011;33408;52.062;11.722;2023-06-24T09:32:08;9.57;;;5.30;;
47669;SDS011;33408;52.062;11.722;2023-06-24T09:34:35;8.88;;;5.18;;
47669;SDS011;33408;52.062;11.722;2023-06-24T09:37:02;7.43;;;5.30;;
47669;SDS011;33408;52.062;11.722;2023-06-24T09:39:34;9.10;;;5.32;;
47669;SDS011;33408;52.062;11.722;2023-06-24T09:42:02;13.65;;;5.68;;
47669;SDS011;33408;52.062;11.722;2023-06-24T09:44:30;9.40;;;5.22;;
47669;SDS011;33408;52.062;11.722;2023-06-24T09:46:58;9.90;;;4.82;;
47669;SDS011;33408;52.062;11.722;2023-06-24T09:49:24;8.38;;;4.65;;
47669;SDS011;33408;52.062;11.722;2023-06-24T09:51:54;8.00;;;4.57;;
47669;SDS011;33408;52.062;11.722;2023-06-24T09:54:21;6.38;;;4.28;;
47669;SDS011;33408;52.062;11.722;2023-06-24T09:56:50;9.55;;;5.63;;
47669;SDS011;33408;52.062;11.722;2023-06-24T09:59:19;7.78;;;5.03;;
47669;SDS011;33408;52.062;11.722;2023-06-24T10:01:47;7.22;;;4.30;;
47669;SDS011;33408;52.062;11.722;2023-06-24T10:04:16;7.72;;;3.92;;
47669;SDS011;33408;52.062;11.722;2023-06-24T10:06:44;7.07;;;3.80;;
47669;SDS011;33408;52.062;11.722;2023-06-24T10:09:11;6.05;;;3.67;;
47669;SDS011;33408;52.062;11.722;2023-06-24T10:11:38;6.70;;;3.97;;
47669;SDS011;33408;52.062;11.722;2023-06-24T10:14:05;9.32;;;4.35;;
47669;SDS011;33408;52.062;11.722;2023-06-24T10:16:32;6.80;;;3.85;;
47669;SDS011;33408;52.062;11.722;2023-06-24T10:18:59;8.43;;;3.97;;
47669;SDS011;33408;52.062;11.722;2023-06-24T10:21:44;6.25;;;3.75;;
47669;SDS011;33408;52.062;11.722;2023-06-24T10:24:11;7.40;;;3.80;;
47669;SDS011;33408;52.062;11.722;2023-06-24T10:26:39;6.93;;;4.45;;
47669;SDS011;33408;52.062;11.722;2023-06-24T10:29:09;7.55;;;3.85;;
47669;SDS011;33408;52.062;11.722;2023-06-24T10:31:51;6.18;;;3.72;;
47669;SDS011;33408;52.062;11.722;2023-06-24T10:37:18;6.93;;;3.63;;
47669;SDS011;33408;52.062;11.722;2023-06-24T10:39:47;7.93;;;4.50;;
47669;SDS011;33408;52.062;11.722;2023-06-24T10:42:28;8.55;;;4.43;;
47669;SDS011;33408;52.062;11.722;2023-06-24T10:44:59;6.93;;;4.13;;
47669;SDS011;33408;52.062;11.722;2023-06-24T10:47:28;7.07;;;3.72;;
47669;SDS011;33408;52.062;11.722;2023-06-24T10:49:55;5.78;;;3.42;;
47669;SDS011;33408;52.062;11.722;2023-06-24T10:52:23;7.30;;;4.05;;
47669;SDS011;33408;52.062;11.722;2023-06-24T10:54:51;7.80;;;3.47;;
47669;SDS011;33408;52.062;11.722;2023-06-24T10:57:22;5.78;;;3.60;;
47669;SDS011;33408;52.062;11.722;2023-06-24T10:59:51;7.80;;;3.38;;
47669;SDS011;33408;52.062;11.722;2023-06-24T11:02:18;5.80;;;2.95;;
47669;SDS011;33408;52.062;11.722;2023-06-24T11:04:46;7.07;;;4.05;;
47669;SDS011;33408;52.062;11.722;2023-06-24T11:07:14;7.40;;;3.67;;
47669;SDS011;33408;52.062;11.722;2023-06-24T11:09:49;7.47;;;3.22;;
47669;SDS011;33408;52.062;11.722;2023-06-24T11:12:16;6.25;;;3.60;;
47669;SDS011;33408;52.062;11.722;2023-06-24T11:14:43;7.57;;;3.35;;
47669;SDS011;33408;52.062;11.722;2023-06-24T11:17:10;6.20;;;3.75;;
47669;SDS011;33408;52.062;11.722;2023-06-24T11:19:37;8.52;;;4.13;;
47669;SDS011;33408;52.062;11.722;2023-06-24T11:22:06;6.40;;;3.53;;
47669;SDS011;33408;52.062;11.722;2023-06-24T11:24:33;7.82;;;3.15;;
47669;SDS011;33408;52.062;11.722;2023-06-24T11:27:01;5.50;;;3.25;;
47669;SDS011;33408;52.062;11.722;2023-06-24T11:29:29;6.75;;;3.50;;
47669;SDS011;33408;52.062;11.722;2023-06-24T11:31:57;6.80;;;3.10;;
47669;SDS011;33408;52.062;11.722;2023-06-24T11:34:24;5.80;;;3.17;;
47669;SDS011;33408;52.062;11.722;2023-06-24T11:36:50;8.10;;;3.75;;
47669;SDS011;33408;52.062;11.722;2023-06-24T11:39:20;8.75;;;3.45;;
47669;SDS011;33408;52.062;11.722;2023-06-24T11:41:48;6.75;;;3.03;;
47669;SDS011;33408;52.062;11.722;2023-06-24T11:44:18;7.38;;;3.47;;
47669;SDS011;33408;52.062;11.722;2023-06-24T11:46:45;5.85;;;3.40;;
47669;SDS011;33408;52.062;11.722;2023-06-24T11:49:12;8.00;;;3.67;;
47669;SDS011;33408;52.062;11.722;2023-06-24T11:51:45;7.00;;;3.42;;
47669;SDS011;33408;52.062;11.722;2023-06-24T11:54:14;9.10;;;3.35;;
47669;SDS011;33408;52.062;11.722;2023-06-24T11:56:42;7.03;;;3.50;;
47669;SDS011;33408;52.062;11.722;2023-06-24T11:59:17;5.80;;;3.28;;
47669;SDS011;33408;52.062;11.722;2023-06-24T12:01:45;6.63;;;3.30;;
47669;SDS011;33408;52.062;11.722;2023-06-24T12:04:12;6.45;;;3.42;;
47669;SDS011;33408;52.062;11.722;2023-06-24T12:06:39;9.43;;;3.38;;
47669;SDS011;33408;52.062;11.722;2023-06-24T12:09:06;6.80;;;3.35;;
47669;SDS011;33408;52.062;11.722;2023-06-24T12:11:33;7.15;;;3.20;;
47669;SDS011;33408;52.062;11.722;2023-06-24T12:14:00;9.77;;;3.83;;
47669;SDS011;33408;52.062;11.722;2023-06-24T12:16:28;8.82;;;3.58;;
47669;SDS011;33408;52.062;11.722;2023-06-24T12:18:55;5.78;;;3.35;;
47669;SDS011;33408;52.062;11.722;2023-06-24T12:21:22;11.00;;;3.78;;
47669;SDS011;33408;52.062;11.722;2023-06-24T12:23:48;6.55;;;3.50;;
47669;SDS011;33408;52.062;11.722;2023-06-24T12:26:15;10.93;;;3.55;;
47669;SDS011;33408;52.062;11.722;2023-06-24T12:28:42;6.38;;;3.88;;
47669;SDS011;33408;52.062;11.722;2023-06-24T12:31:08;7.45;;;3.28;;
47669;SDS011;33408;52.062;11.722;2023-06-24T12:33:36;5.88;;;3.65;;
47669;SDS011;33408;52.062;11.722;2023-06-24T12:36:03;5.60;;;2.80;;
47669;SDS011;33408;52.062;11.722;2023-06-24T12:38:30;6.20;;;3.33;;
47669;SDS011;33408;52.062;11.722;2023-06-24T12:40:56;7.95;;;3.72;;
47669;SDS011;33408;52.062;11.722;2023-06-24T12:43:23;6.72;;;3.63;;
47669;SDS011;33408;52.062;11.722;2023-06-24T12:45:50;5.75;;;3.10;;
47669;SDS011;33408;52.062;11.722;2023-06-24T12:48:17;8.25;;;3.95;;
47669;SDS011;33408;52.062;11.722;2023-06-24T12:50:45;5.50;;;3.33;;
47669;SDS011;33408;52.062;11.722;2023-06-24T12:53:12;6.45;;;3.30;;
47669;SDS011;33408;52.062;11.722;2023-06-24T12:55:40;9.27;;;3.42;;
47669;SDS011;33408;52.062;11.722;2023-06-24T12:58:07;5.05;;;2.95;;
47669;SDS011;33408;52.062;11.722;2023-06-24T13:00:33;6.03;;;3.08;;
47669;SDS011;33408;52.062;11.722;2023-06-24T13:03:00;5.25;;;2.95;;
47669;SDS011;33408;52.062;11.722;2023-06-24T13:05:27;7.30;;;3.30;;
47669;SDS011;33408;52.062;11.722;2023-06-24T13:07:55;6.28;;;3.05;;
47669;SDS011;33408;52.062;11.722;2023-06-24T13:10:21;6.80;;;3.38;;
47669;SDS011;33408;52.062;11.722;2023-06-24T13:12:48;9.40;;;3.90;;
47669;SDS011;33408;52.062;11.722;2023-06-24T13:15:15;6.45;;;3.38;;
47669;SDS011;33408;52.062;11.722;2023-06-24T13:17:41;10.48;;;3.10;;
47669;SDS011;33408;52.062;11.722;2023-06-24T13:20:08;9.20;;;3.90;;
47669;SDS011;33408;52.062;11.722;2023-06-24T13:22:36;5.10;;;2.80;;
47669;SDS011;33408;52.062;11.722;2023-06-24T13:25:04;7.80;;;3.33;;
47669;SDS011;33408;52.062;11.722;2023-06-24T13:27:32;7.22;;;2.72;;
47669;SDS011;33408;52.062;11.722;2023-06-24T13:29:58;5.72;;;3.30;;
47669;SDS011;33408;52.062;11.722;2023-06-24T13:32:25;10.40;;;3.47;;
47669;SDS011;33408;52.062;11.722;2023-06-24T13:34:51;5.25;;;3.08;;
47669;SDS011;33408;52.062;11.722;2023-06-24T13:37:18;5.07;;;3.17;;
47669;SDS011;33408;52.062;11.722;2023-06-24T13:39:44;7.63;;;3.35;;
47669;SDS011;33408;52.062;11.722;2023-06-24T13:42:13;6.60;;;3.00;;
47669;SDS011;33408;52.062;11.722;2023-06-24T13:44:40;7.18;;;3.75;;
47669;SDS011;33408;52.062;11.722;2023-06-24T13:47:06;7.47;;;3.20;;
47669;SDS011;33408;52.062;11.722;2023-06-24T13:49:33;6.15;;;3.42;;
47669;SDS011;33408;52.062;11.722;2023-06-24T13:52:00;7.63;;;3.28;;
47669;SDS011;33408;52.062;11.722;2023-06-24T13:54:26;5.63;;;3.20;;
47669;SDS011;33408;52.062;11.722;2023-06-24T13:56:57;6.57;;;3.10;;
47669;SDS011;33408;52.062;11.722;2023-06-24T13:59:25;7.20;;;3.40;;
47669;SDS011;33408;52.062;11.722;2023-06-24T14:01:52;7.70;;;3.10;;
47669;SDS011;33408;52.062;11.722;2023-06-24T14:04:18;6.90;;;3.25;;
47669;SDS011;33408;52.062;11.722;2023-06-24T14:06:45;6.68;;;2.75;;
47669;SDS011;33408;52.062;11.722;2023-06-24T14:09:11;4.63;;;2.45;;
47669;SDS011;33408;52.062;11.722;2023-06-24T14:11:39;6.40;;;2.95;;
47669;SDS011;33408;52.062;11.722;2023-06-24T14:14:06;5.50;;;2.72;;
47669;SDS011;33408;52.062;11.722;2023-06-24T14:16:34;6.78;;;2.97;;
47669;SDS011;33408;52.062;11.722;2023-06-24T14:19:00;6.53;;;3.63;;
47669;SDS011;33408;52.062;11.722;2023-06-24T14:21:27;5.50;;;3.08;;
47669;SDS011;33408;52.062;11.722;2023-06-24T14:23:56;7.65;;;3.20;;
47669;SDS011;33408;52.062;11.722;2023-06-24T14:26:23;6.72;;;3.13;;
47669;SDS011;33408;52.062;11.722;2023-06-24T14:28:49;7.45;;;2.97;;